Time;durP1;ratioP1;P1;durP2;ratioP2;P2;SDS_P1;SDS_P2;PMS_P1;PMS_P2;Temp;Humidity;BMP_temperature;BMP_pressure;BME280_temperature;BME280_humidity;BME280_pressure;Samples;Min_cycle;Max_cycle;Signal;HPM_P1;HPM_P2
2023/11/10 00:01:25;;;;;;;2.70;1.00;;;6.90;99.90;;;;;;5077482;28;20224;-84
2023/11/10 00:03:52;;;;;;;4.50;1.02;;;6.90;99.90;;;;;;5077820;28;20184;-83
2023/11/10 00:06:18;;;;;;;2.50;0.95;;;6.90;99.90;;;;;;5077925;28;20181;-84
2023/11/10 00:08:44;;;;;;;3.17;1.30;;;6.80;99.90;;;;;;5071107;28;20286;-84
2023/11/10 00:11:10;;;;;;;4.22;1.00;;;6.70;99.90;;;;;;5073012;28;20601;-84
2023/11/10 00:13:35;;;;;;;4.73;1.30;;;6.70;99.90;;;;;;5055407;28;20273;-84
2023/11/10 00:16:01;;;;;;;1.53;1.30;;;6.60;99.90;;;;;;5072894;28;20192;-84
2023/11/10 00:18:26;;;;;;;1.97;1.20;;;6.50;99.90;;;;;;5073215;28;20189;-84
2023/11/10 00:20:52;;;;;;;3.87;2.20;;;6.40;99.90;;;;;;5072583;28;20182;-84
2023/11/10 00:23:18;;;;;;;1.63;1.30;;;6.40;99.90;;;;;;5086625;28;20188;-84
2023/11/10 00:25:43;;;;;;;5.03;1.40;;;6.40;99.90;;;;;;5058935;28;20215;-84
2023/11/10 00:28:10;;;;;;;4.23;1.10;;;6.30;99.90;;;;;;5076834;28;20176;-83
2023/11/10 00:30:36;;;;;;;5.38;1.30;;;6.20;99.90;;;;;;5076833;28;20613;-84
2023/11/10 00:33:02;;;;;;;3.57;1.43;;;6.20;99.90;;;;;;5075622;28;20192;-84
2023/11/10 00:35:28;;;;;;;3.00;1.10;;;6.20;99.90;;;;;;5058898;28;20519;-84
2023/11/10 00:37:54;;;;;;;2.85;1.15;;;6.20;99.90;;;;;;5076936;28;20617;-84
2023/11/10 00:40:20;;;;;;;3.30;1.13;;;6.10;99.90;;;;;;5091689;28;20176;-83
2023/11/10 00:42:46;;;;;;;1.52;1.10;;;6.20;99.90;;;;;;5074819;28;20265;-84
2023/11/10 00:45:11;;;;;;;3.10;1.27;;;6.20;99.90;;;;;;5075494;28;20615;-84
2023/11/10 00:47:37;;;;;;;1.53;1.10;;;6.30;99.90;;;;;;5074631;28;20204;-84
2023/11/10 00:50:03;;;;;;;2.03;1.17;;;6.30;99.90;;;;;;5075124;28;20267;-84
2023/11/10 00:52:29;;;;;;;1.60;1.38;;;6.30;99.90;;;;;;5075166;28;20388;-84
2023/11/10 00:54:54;;;;;;;1.97;1.10;;;6.30;99.90;;;;;;5076618;28;20206;-84
2023/11/10 00:57:20;;;;;;;1.93;1.10;;;6.30;99.90;;;;;;5091910;28;20186;-84
2023/11/10 00:59:46;;;;;;;2.00;1.07;;;6.30;99.90;;;;;;5075772;28;20177;-83
2023/11/10 01:02:11;;;;;;;2.50;1.10;;;6.30;99.90;;;;;;5058446;28;20177;-84
2023/11/10 01:04:37;;;;;;;2.77;0.93;;;6.30;99.90;;;;;;5057780;28;20224;-84
2023/11/10 01:07:02;;;;;;;1.10;1.00;;;6.20;99.90;;;;;;5075558;28;20216;-83
2023/11/10 01:09:28;;;;;;;2.40;1.60;;;6.20;99.90;;;;;;5076338;28;20185;-84
2023/11/10 01:11:54;;;;;;;2.57;1.10;;;6.20;99.90;;;;;;5057920;28;20187;-84
2023/11/10 01:14:21;;;;;;;2.38;1.05;;;6.30;99.90;;;;;;5074992;28;20212;-84
2023/11/10 01:16:47;;;;;;;2.15;1.27;;;6.30;99.90;;;;;;5076143;28;20199;-84
2023/11/10 01:19:13;;;;;;;2.90;1.20;;;6.30;99.90;;;;;;5058685;28;20186;-84
2023/11/10 01:21:38;;;;;;;4.55;2.05;;;6.30;99.90;;;;;;5075682;28;20418;-84
2023/11/10 01:24:04;;;;;;;2.00;1.13;;;6.30;99.90;;;;;;5058031;28;20188;-84
2023/11/10 01:26:31;;;;;;;3.00;1.20;;;6.30;99.90;;;;;;5057890;28;20192;-83
2023/11/10 01:28:57;;;;;;;1.27;0.95;;;6.30;99.90;;;;;;5076498;28;20415;-84
2023/11/10 01:31:22;;;;;;;2.07;1.00;;;6.30;99.90;;;;;;5058167;28;20276;-84
2023/11/10 01:33:48;;;;;;;2.40;0.90;;;6.40;99.90;;;;;;5057873;28;20191;-84
2023/11/10 01:36:13;;;;;;;1.50;1.13;;;6.40;99.90;;;;;;5074706;28;20565;-84
2023/11/10 01:38:42;;;;;;;1.70;1.10;;;6.40;99.90;;;;;;5058366;28;20178;-84
2023/11/10 01:41:09;;;;;;;1.60;1.00;;;6.40;99.90;;;;;;5058667;28;20270;-84
2023/11/10 01:43:34;;;;;;;4.10;1.48;;;6.40;99.90;;;;;;5075421;28;20175;-84
2023/11/10 01:46:01;;;;;;;3.30;1.00;;;6.30;99.90;;;;;;5091118;28;20679;-84
2023/11/10 01:48:27;;;;;;;2.00;1.10;;;6.30;99.90;;;;;;5075223;28;20681;-86
2023/11/10 01:50:53;;;;;;;4.47;1.37;;;6.40;99.90;;;;;;5090965;28;20180;-86
2023/11/10 01:53:18;;;;;;;1.20;0.93;;;6.30;99.90;;;;;;5073796;28;20640;-88
2023/11/10 01:55:47;;;;;;;4.53;1.30;;;6.30;99.90;;;;;;5073306;28;20461;-90
2023/11/10 01:58:12;;;;;;;4.20;1.67;;;6.40;99.90;;;;;;5073430;28;20177;-91
2023/11/10 02:00:39;;;;;;;3.73;2.40;;;6.40;99.90;;;;;;5075492;28;20223;-93
2023/11/10 02:03:06;;;;;;;1.55;1.13;;;6.30;99.90;;;;;;5075466;28;20180;-91
2023/11/10 02:05:32;;;;;;;4.32;1.00;;;6.30;99.90;;;;;;5073472;28;20196;-90
2023/11/10 02:07:58;;;;;;;1.88;1.35;;;6.30;99.90;;;;;;5074631;28;20227;-89
2023/11/10 02:10:23;;;;;;;3.60;1.17;;;6.30;99.90;;;;;;5069693;28;20191;-89
2023/11/10 02:12:53;;;;;;;5.20;2.43;;;6.40;99.90;;;;;;5053216;28;20214;-89
2023/11/10 02:15:19;;;;;;;3.05;1.27;;;6.40;99.90;;;;;;5054477;28;20212;-89
2023/11/10 02:17:44;;;;;;;4.00;1.20;;;6.40;99.90;;;;;;5053249;28;20191;-88
2023/11/10 02:20:10;;;;;;;2.20;1.10;;;6.60;99.90;;;;;;5053132;28;20424;-88
2023/11/10 02:22:36;;;;;;;5.07;1.20;;;6.50;99.90;;;;;;5085629;28;20628;-89
2023/11/10 02:25:15;;;;;;;2.47;1.07;;;6.50;99.90;;;;;;5072738;28;20257;-88
2023/11/10 02:27:40;;;;;;;4.32;1.00;;;6.50;99.90;;;;;;5074323;28;20535;-88
2023/11/10 02:30:07;;;;;;;2.60;1.40;;;6.50;99.90;;;;;;5072859;28;20177;-87
2023/11/10 02:32:33;;;;;;;2.00;0.90;;;6.50;99.90;;;;;;5069488;28;20193;-86
2023/11/10 02:34:59;;;;;;;2.90;1.10;;;6.50;99.90;;;;;;5054283;28;20187;-86
2023/11/10 02:37:25;;;;;;;1.60;0.98;;;6.50;99.90;;;;;;5054442;28;20416;-87
2023/11/10 02:39:50;;;;;;;2.00;1.20;;;6.60;99.90;;;;;;5053071;28;20186;-86
2023/11/10 02:42:16;;;;;;;4.30;1.03;;;6.50;99.90;;;;;;5053410;28;20232;-86
2023/11/10 02:44:42;;;;;;;8.30;1.30;;;6.50;99.90;;;;;;5052675;28;20294;-86
2023/11/10 02:47:08;;;;;;;2.72;1.23;;;6.60;99.90;;;;;;5069720;28;20637;-86
2023/11/10 02:49:34;;;;;;;1.73;1.10;;;6.50;99.90;;;;;;5053065;28;20272;-86
2023/11/10 02:51:59;;;;;;;2.07;1.17;;;6.50;99.90;;;;;;5052815;28;20273;-87
2023/11/10 02:54:25;;;;;;;4.43;1.70;;;6.40;99.90;;;;;;5052849;28;20243;-87
2023/11/10 02:56:51;;;;;;;4.90;1.40;;;6.50;99.90;;;;;;5069667;28;20420;-87
2023/11/10 02:59:16;;;;;;;4.03;1.10;;;6.60;99.90;;;;;;5054306;28;20178;-86
2023/11/10 03:01:42;;;;;;;2.10;1.40;;;6.60;99.90;;;;;;5069584;28;20225;-86
2023/11/10 03:04:08;;;;;;;8.37;1.90;;;6.70;99.90;;;;;;5055911;28;20187;-86
2023/11/10 03:06:34;;;;;;;4.83;1.13;;;6.70;99.90;;;;;;5057996;28;20400;-86
2023/11/10 03:09:01;;;;;;;4.57;1.43;;;6.70;99.90;;;;;;5073879;28;20426;-86
2023/11/10 03:11:26;;;;;;;6.35;1.40;;;6.60;99.90;;;;;;5056415;28;20608;-85
2023/11/10 03:13:54;;;;;;;3.80;1.07;;;6.60;99.90;;;;;;5057183;28;20181;-85
2023/11/10 03:16:23;;;;;;;2.33;1.25;;;6.60;99.90;;;;;;5086300;28;20192;-85
2023/11/10 03:18:52;;;;;;;3.90;1.25;;;6.60;99.90;;;;;;5075955;28;20535;-86
2023/11/10 03:21:19;;;;;;;2.63;1.50;;;6.60;99.90;;;;;;5076150;28;20177;-85
2023/11/10 03:23:47;;;;;;;7.72;1.30;;;6.60;99.90;;;;;;5076246;28;20184;-86
2023/11/10 03:26:13;;;;;;;4.57;1.60;;;6.50;99.90;;;;;;5060141;28;20654;-85
2023/11/10 03:28:39;;;;;;;3.83;1.00;;;6.60;99.90;;;;;;5076040;28;20234;-85
2023/11/10 03:31:08;;;;;;;2.30;1.30;;;6.60;99.90;;;;;;5043278;28;20190;-85
2023/11/10 03:33:34;;;;;;;4.00;1.52;;;6.80;99.90;;;;;;5092875;28;20735;-85
2023/11/10 03:36:02;;;;;;;3.00;1.00;;;6.70;99.90;;;;;;5092841;28;20276;-85
2023/11/10 03:38:28;;;;;;;4.03;0.80;;;6.70;99.90;;;;;;5078061;28;20172;-85
2023/11/10 03:40:54;;;;;;;3.37;1.10;;;6.80;99.90;;;;;;5072754;28;20177;-85
2023/11/10 03:43:19;;;;;;;2.37;1.47;;;6.80;99.90;;;;;;5092877;28;20250;-84
2023/11/10 03:45:46;;;;;;;3.00;1.17;;;6.80;99.90;;;;;;5076328;28;20215;-84
2023/11/10 03:48:12;;;;;;;3.78;1.67;;;6.80;99.90;;;;;;5059676;28;20275;-85
2023/11/10 03:50:39;;;;;;;4.13;2.47;;;6.80;99.90;;;;;;5060042;28;20270;-84
2023/11/10 03:53:04;;;;;;;3.75;1.10;;;6.80;99.90;;;;;;5059461;28;20188;-84
2023/11/10 03:55:30;;;;;;;3.60;1.20;;;6.80;99.90;;;;;;5076374;28;20191;-84
2023/11/10 03:57:56;;;;;;;3.20;1.07;;;6.80;99.90;;;;;;5076038;28;20214;-84
2023/11/10 04:00:22;;;;;;;3.97;1.00;;;6.90;99.90;;;;;;5076087;28;20583;-84
2023/11/10 04:02:48;;;;;;;3.08;1.00;;;6.90;99.90;;;;;;5075652;28;20191;-84
2023/11/10 04:05:14;;;;;;;6.60;1.57;;;7.00;99.90;;;;;;5092738;28;20236;-84
2023/11/10 04:07:39;;;;;;;4.07;1.40;;;7.00;99.90;;;;;;5041049;28;20450;-84
2023/11/10 04:10:06;;;;;;;2.20;0.80;;;7.00;99.90;;;;;;5056332;28;20522;-84
2023/11/10 04:12:32;;;;;;;3.50;1.27;;;7.00;99.90;;;;;;5072482;28;20178;-85
2023/11/10 04:14:58;;;;;;;1.25;0.90;;;7.00;99.90;;;;;;5054477;28;20189;-84
2023/11/10 04:17:24;;;;;;;1.87;1.20;;;7.00;99.90;;;;;;5072043;28;20643;-85
2023/11/10 04:19:50;;;;;;;3.30;0.98;;;7.10;99.90;;;;;;5071832;28;20974;-85
2023/11/10 04:22:15;;;;;;;3.20;1.33;;;7.10;99.90;;;;;;5056743;28;20181;-85
2023/11/10 04:24:43;;;;;;;7.53;1.20;;;7.10;99.90;;;;;;5072293;28;20456;-85
2023/11/10 04:27:09;;;;;;;1.77;1.10;;;7.10;99.90;;;;;;5055779;28;20181;-84
2023/11/10 04:29:36;;;;;;;3.77;1.40;;;7.10;99.90;;;;;;5072430;28;20238;-84
2023/11/10 04:32:05;;;;;;;3.35;0.90;;;7.20;99.90;;;;;;5055429;28;20227;-84
2023/11/10 04:34:30;;;;;;;4.38;1.20;;;7.20;99.90;;;;;;5055238;28;20189;-84
2023/11/10 04:36:56;;;;;;;3.37;1.20;;;7.20;99.90;;;;;;5072329;28;20285;-84
2023/11/10 04:39:23;;;;;;;4.20;1.20;;;7.30;99.90;;;;;;5056081;28;20239;-83
2023/11/10 04:41:49;;;;;;;7.15;0.93;;;7.30;99.90;;;;;;5055084;28;20525;-83
2023/11/10 04:44:15;;;;;;;5.70;1.35;;;7.40;99.90;;;;;;5071623;28;20185;-84
2023/11/10 04:46:42;;;;;;;7.50;1.50;;;7.50;99.90;;;;;;5055191;28;20645;-84
2023/11/10 04:49:10;;;;;;;3.08;1.30;;;7.50;99.90;;;;;;5055099;28;21033;-83
2023/11/10 04:51:36;;;;;;;2.95;1.40;;;7.50;99.90;;;;;;5057345;28;20189;-84
2023/11/10 04:54:03;;;;;;;4.07;1.35;;;7.50;99.90;;;;;;5053781;28;20227;-83
2023/11/10 04:56:28;;;;;;;5.07;1.10;;;7.50;99.90;;;;;;5038093;28;20185;-84
2023/11/10 04:58:54;;;;;;;2.40;0.90;;;7.50;99.90;;;;;;5038181;28;20200;-84
2023/11/10 05:01:20;;;;;;;5.80;1.70;;;7.50;99.90;;;;;;5043482;28;20291;-84
2023/11/10 05:03:46;;;;;;;5.60;1.80;;;7.40;99.90;;;;;;5074714;28;20185;-84
2023/11/10 05:06:12;;;;;;;4.90;1.90;;;7.50;99.90;;;;;;5075920;28;20208;-83
2023/11/10 05:08:37;;;;;;;3.27;1.43;;;7.50;99.90;;;;;;5075008;28;20466;-84
2023/11/10 05:11:04;;;;;;;2.40;1.10;;;7.50;99.90;;;;;;5058258;28;20246;-84
2023/11/10 05:13:29;;;;;;;2.95;1.73;;;7.50;99.90;;;;;;5075417;28;20185;-83
2023/11/10 05:15:55;;;;;;;3.00;1.07;;;7.50;99.90;;;;;;5056538;28;20216;-83
2023/11/10 05:18:26;;;;;;;2.87;1.00;;;7.50;99.90;;;;;;5058246;28;20196;-83
2023/11/10 05:20:53;;;;;;;2.85;1.52;;;7.50;99.90;;;;;;5059199;28;20597;-83
2023/11/10 05:23:18;;;;;;;3.40;1.40;;;7.50;99.90;;;;;;5074702;28;20621;-83
2023/11/10 05:25:44;;;;;;;10.13;1.30;;;7.50;99.90;;;;;;5074460;28;20218;-84
2023/11/10 05:28:09;;;;;;;1.93;1.10;;;7.60;99.90;;;;;;5058090;28;20239;-83
2023/11/10 05:30:35;;;;;;;3.23;1.37;;;7.60;99.90;;;;;;5075300;28;20192;-83
2023/11/10 05:33:01;;;;;;;2.73;1.20;;;7.60;99.90;;;;;;5074183;28;20214;-83
2023/11/10 05:35:26;;;;;;;4.90;1.00;;;7.60;99.90;;;;;;5074482;28;20211;-83
2023/11/10 05:37:52;;;;;;;2.70;1.00;;;7.50;99.90;;;;;;5074154;28;20181;-83
2023/11/10 05:40:18;;;;;;;1.93;1.20;;;7.60;99.90;;;;;;5074280;28;20636;-83
2023/11/10 05:42:43;;;;;;;2.55;0.93;;;7.60;99.90;;;;;;5055704;28;20189;-83
2023/11/10 05:45:09;;;;;;;3.17;1.93;;;7.60;99.90;;;;;;5063915;28;20562;-83
2023/11/10 05:47:35;;;;;;;1.83;1.03;;;7.50;99.90;;;;;;5058987;28;20185;-82
2023/11/10 05:50:00;;;;;;;6.37;1.23;;;7.50;99.90;;;;;;5074036;28;20194;-83
2023/11/10 05:52:29;;;;;;;2.87;1.07;;;7.50;99.90;;;;;;5074744;28;20184;-82
2023/11/10 05:54:55;;;;;;;3.17;1.08;;;7.50;99.90;;;;;;5058391;28;20271;-83
2023/11/10 05:57:20;;;;;;;2.10;0.80;;;7.60;99.90;;;;;;5057627;28;20222;-83
2023/11/10 05:59:46;;;;;;;4.40;1.13;;;7.50;99.90;;;;;;5040903;28;20244;-83
2023/11/10 06:02:12;;;;;;;3.00;1.13;;;7.40;99.90;;;;;;5057204;28;20185;-83
2023/11/10 06:04:38;;;;;;;2.60;0.93;;;7.40;99.90;;;;;;5074511;28;20685;-83
2023/11/10 06:07:04;;;;;;;1.45;0.80;;;7.40;99.90;;;;;;5057549;28;20484;-83
2023/11/10 06:09:31;;;;;;;2.13;0.80;;;7.30;99.90;;;;;;5071135;28;20193;-83
2023/11/10 06:11:58;;;;;;;2.88;1.17;;;7.30;99.90;;;;;;5068467;28;20176;-83
2023/11/10 06:14:24;;;;;;;3.47;1.00;;;7.30;99.90;;;;;;5074702;28;20170;-83
2023/11/10 06:16:49;;;;;;;6.45;1.27;;;7.20;99.90;;;;;;5057736;28;20191;-83
2023/11/10 06:19:16;;;;;;;2.90;1.10;;;7.10;99.90;;;;;;5073735;28;20692;-83
2023/11/10 06:21:41;;;;;;;1.13;0.90;;;7.10;99.90;;;;;;5057021;28;20191;-83
2023/11/10 06:24:08;;;;;;;5.07;1.60;;;7.10;99.90;;;;;;5053879;28;20190;-83
2023/11/10 06:26:35;;;;;;;5.57;1.10;;;7.10;99.90;;;;;;5054401;28;20208;-82
2023/11/10 06:29:03;;;;;;;1.40;1.00;;;7.10;99.90;;;;;;5042616;28;20177;-82
2023/11/10 06:31:28;;;;;;;1.80;1.05;;;7.00;99.90;;;;;;5058216;28;20177;-83
2023/11/10 06:33:54;;;;;;;4.90;1.60;;;7.10;99.90;;;;;;5040572;28;20200;-83
2023/11/10 06:36:20;;;;;;;1.40;0.90;;;7.10;99.90;;;;;;5057139;28;20190;-83
2023/11/10 06:38:46;;;;;;;3.13;1.23;;;7.10;99.90;;;;;;5076723;28;20183;-83
2023/11/10 06:41:12;;;;;;;1.52;0.88;;;7.00;99.90;;;;;;5079268;28;20179;-83
2023/11/10 06:43:39;;;;;;;1.10;0.95;;;7.00;99.90;;;;;;5078855;28;20230;-84
2023/11/10 06:46:05;;;;;;;4.40;1.08;;;7.00;99.90;;;;;;5044042;28;20208;-84
2023/11/10 06:48:31;;;;;;;1.65;1.10;;;7.10;99.90;;;;;;5060702;28;20189;-84
2023/11/10 06:50:57;;;;;;;2.80;1.43;;;7.00;99.90;;;;;;5077047;28;20180;-84
2023/11/10 06:53:22;;;;;;;2.70;1.37;;;7.00;99.90;;;;;;5077548;28;20257;-83
2023/11/10 06:55:49;;;;;;;4.87;1.90;;;7.00;99.90;;;;;;5078123;28;20482;-84
2023/11/10 06:58:15;;;;;;;1.25;1.00;;;7.00;99.90;;;;;;5077202;28;20185;-84
2023/11/10 07:00:41;;;;;;;2.78;1.50;;;7.00;99.90;;;;;;5078216;28;20227;-84
2023/11/10 07:03:12;;;;;;;3.50;1.53;;;7.20;99.90;;;;;;5040256;28;20642;-84
2023/11/10 07:05:39;;;;;;;2.90;1.23;;;7.20;99.90;;;;;;5041482;28;20206;-84
2023/11/10 07:08:09;;;;;;;3.38;1.05;;;7.20;99.90;;;;;;5057005;28;20195;-84
2023/11/10 07:10:43;;;;;;;3.10;1.20;;;7.30;99.90;;;;;;5070446;28;20177;-83
2023/11/10 07:13:10;;;;;;;2.00;1.50;;;7.40;99.90;;;;;;5041000;28;20286;-83
2023/11/10 07:15:36;;;;;;;1.95;1.45;;;7.40;99.90;;;;;;5040513;28;20189;-83
2023/11/10 07:18:02;;;;;;;2.27;1.33;;;7.40;99.90;;;;;;5045288;28;20197;-84
2023/11/10 07:20:30;;;;;;;6.17;1.30;;;7.40;99.90;;;;;;5076821;28;20950;-84
2023/11/10 07:23:00;;;;;;;3.63;1.33;;;7.30;99.90;;;;;;5076406;28;20887;-84
2023/11/10 07:25:26;;;;;;;5.65;1.38;;;7.40;99.90;;;;;;5063333;28;20224;-83
2023/11/10 07:27:55;;;;;;;3.83;1.10;;;7.40;99.90;;;;;;5057122;28;20213;-84
2023/11/10 07:30:22;;;;;;;3.35;1.00;;;7.40;99.90;;;;;;5071947;28;20180;-83
2023/11/10 07:32:51;;;;;;;5.22;1.25;;;7.50;99.90;;;;;;5078250;28;20318;-84
2023/11/10 07:35:20;;;;;;;2.80;1.15;;;7.50;99.90;;;;;;5060794;28;20181;-84
2023/11/10 07:37:47;;;;;;;3.17;1.27;;;7.50;99.90;;;;;;5076854;28;20257;-84
2023/11/10 07:40:14;;;;;;;5.85;1.45;;;7.50;99.90;;;;;;5075673;28;20180;-88
2023/11/10 07:42:45;;;;;;;3.85;1.35;;;7.60;99.90;;;;;;5054901;28;20196;-87
2023/11/10 07:45:14;;;;;;;2.08;1.80;;;7.60;99.90;;;;;;5054047;28;20205;-87
2023/11/10 07:47:51;;;;;;;4.40;1.70;;;7.70;99.90;;;;;;5071712;28;20637;-83
2023/11/10 07:50:19;;;;;;;6.05;1.35;;;7.70;99.90;;;;;;5070431;28;20246;-84
2023/11/10 07:52:49;;;;;;;3.95;1.70;;;7.60;99.90;;;;;;5078183;28;20177;-84
2023/11/10 07:55:15;;;;;;;2.10;1.35;;;7.60;99.90;;;;;;5076486;28;20177;-84
2023/11/10 07:57:42;;;;;;;3.58;1.85;;;7.70;99.90;;;;;;5078047;28;20230;-84
2023/11/10 08:00:10;;;;;;;3.75;1.60;;;7.70;99.90;;;;;;5082489;28;20230;-84
2023/11/10 08:02:36;;;;;;;4.63;1.63;;;7.70;99.90;;;;;;5077791;28;20188;-84
2023/11/10 08:05:02;;;;;;;2.13;1.10;;;7.80;99.90;;;;;;5059000;28;20204;-84
2023/11/10 08:07:28;;;;;;;4.15;1.42;;;7.90;99.90;;;;;;5056689;28;20196;-84
2023/11/10 08:09:55;;;;;;;5.90;1.40;;;7.90;99.90;;;;;;5076914;28;20187;-85
2023/11/10 08:12:21;;;;;;;3.83;1.10;;;8.00;99.90;;;;;;5075486;28;20427;-84
2023/11/10 08:14:47;;;;;;;2.50;1.25;;;8.00;99.90;;;;;;5076395;28;20621;-84
2023/11/10 08:17:13;;;;;;;10.70;1.27;;;8.00;99.90;;;;;;5075978;28;20188;-84
2023/11/10 08:19:41;;;;;;;3.13;1.10;;;7.90;99.90;;;;;;5077129;28;20260;-84
2023/11/10 08:22:07;;;;;;;4.07;1.90;;;8.10;99.90;;;;;;5075617;28;20230;-84
2023/11/10 08:24:32;;;;;;;8.13;3.20;;;8.10;99.90;;;;;;5055729;28;20236;-84
2023/11/10 08:26:58;;;;;;;2.47;1.40;;;8.20;99.90;;;;;;5057998;28;20796;-84
2023/11/10 08:29:24;;;;;;;2.97;1.07;;;8.30;99.90;;;;;;5076227;28;20184;-84
2023/11/10 08:31:50;;;;;;;3.70;1.47;;;8.40;99.90;;;;;;5059297;28;20426;-83
2023/11/10 08:34:18;;;;;;;1.35;0.90;;;8.40;99.90;;;;;;5042364;28;20522;-83
2023/11/10 08:36:43;;;;;;;1.63;0.90;;;8.50;99.90;;;;;;5075595;28;20211;-83
2023/11/10 08:39:09;;;;;;;4.07;1.50;;;8.50;99.90;;;;;;5075382;28;20177;-82
2023/11/10 08:41:35;;;;;;;2.87;1.50;;;8.50;99.90;;;;;;5076550;28;20283;-83
2023/11/10 08:44:04;;;;;;;5.80;1.60;;;8.50;99.90;;;;;;5076965;28;20177;-83
2023/11/10 08:46:32;;;;;;;3.92;1.40;;;8.40;99.90;;;;;;5055810;28;20358;-83
2023/11/10 08:49:00;;;;;;;3.45;1.30;;;8.40;99.90;;;;;;5067594;28;20260;-84
2023/11/10 08:51:26;;;;;;;3.08;1.20;;;8.40;99.90;;;;;;5075886;28;20260;-83
2023/11/10 08:53:52;;;;;;;2.05;1.20;;;8.50;99.90;;;;;;5038824;28;20185;-83
2023/11/10 08:56:17;;;;;;;2.30;1.17;;;8.60;99.90;;;;;;5067404;28;20275;-83
2023/11/10 08:58:43;;;;;;;2.77;1.27;;;8.70;99.90;;;;;;5058767;28;20195;-83
2023/11/10 09:01:08;;;;;;;2.83;1.50;;;8.70;99.90;;;;;;5073634;28;20232;-83
2023/11/10 09:03:34;;;;;;;4.83;1.30;;;8.60;99.90;;;;;;5075010;28;20245;-82
2023/11/10 09:05:59;;;;;;;2.40;0.97;;;8.70;99.90;;;;;;5074838;28;20204;-83
2023/11/10 09:08:25;;;;;;;2.30;1.10;;;8.70;99.90;;;;;;5058685;28;20189;-82
2023/11/10 09:10:51;;;;;;;2.97;1.03;;;8.80;99.90;;;;;;5059138;28;20176;-82
2023/11/10 09:13:17;;;;;;;4.27;1.30;;;9.00;99.90;;;;;;5075144;28;20517;-82
2023/11/10 09:15:42;;;;;;;2.10;0.90;;;9.10;99.90;;;;;;5058502;28;20609;-82
2023/11/10 09:18:09;;;;;;;4.60;1.10;;;9.20;99.90;;;;;;5075130;28;20218;-83
2023/11/10 09:20:35;;;;;;;6.40;2.00;;;9.20;99.90;;;;;;5058851;28;20185;-83
2023/11/10 09:23:00;;;;;;;2.53;1.00;;;9.20;99.90;;;;;;5075803;28;20184;-83
2023/11/10 09:25:27;;;;;;;3.73;1.27;;;9.10;99.90;;;;;;5075486;28;20204;-82
2023/11/10 09:27:57;;;;;;;4.90;1.00;;;9.20;99.90;;;;;;5054931;28;20497;-82
2023/11/10 09:30:26;;;;;;;2.35;1.20;;;9.20;99.90;;;;;;5069163;28;20180;-82
2023/11/10 09:32:52;;;;;;;2.33;1.00;;;9.10;99.90;;;;;;5058444;28;20187;-83
2023/11/10 09:35:18;;;;;;;2.47;1.20;;;9.10;99.90;;;;;;5075729;28;20199;-82
2023/11/10 09:37:46;;;;;;;2.60;1.23;;;9.30;99.90;;;;;;5076896;28;20434;-82
2023/11/10 09:40:13;;;;;;;9.38;2.08;;;9.60;99.90;;;;;;5054394;28;20253;-81
2023/11/10 09:42:41;;;;;;;1.73;0.90;;;9.50;99.90;;;;;;5069468;28;20307;-80
2023/11/10 09:45:08;;;;;;;3.53;1.00;;;9.50;99.90;;;;;;5075406;28;20333;-81
2023/11/10 09:47:34;;;;;;;2.85;1.27;;;9.70;99.90;;;;;;5076217;28;20193;-81
2023/11/10 09:50:01;;;;;;;5.82;1.45;;;9.70;99.90;;;;;;5074103;28;20267;-81
2023/11/10 09:52:31;;;;;;;3.65;1.42;;;9.70;99.90;;;;;;5051522;28;20198;-81
2023/11/10 09:54:57;;;;;;;3.90;1.63;;;9.60;99.90;;;;;;5069896;28;20269;-80
2023/11/10 09:57:25;;;;;;;4.40;1.30;;;9.70;99.90;;;;;;5075203;28;20609;-81
2023/11/10 09:59:52;;;;;;;4.82;1.20;;;9.70;99.90;;;;;;5054705;28;20185;-82
2023/11/10 10:02:18;;;;;;;2.45;0.95;;;9.90;99.90;;;;;;5065259;28;20531;-82
2023/11/10 10:04:44;;;;;;;4.40;1.00;;;10.00;99.90;;;;;;5056910;28;20213;-82
2023/11/10 10:07:12;;;;;;;5.47;1.95;;;10.20;99.90;;;;;;5054883;28;20185;-82
2023/11/10 10:09:38;;;;;;;2.08;1.25;;;10.10;99.90;;;;;;5073677;28;20195;-81
2023/11/10 10:12:05;;;;;;;5.13;2.03;;;10.30;99.90;;;;;;5073744;28;20207;-82
2023/11/10 10:14:31;;;;;;;4.55;1.10;;;10.40;99.90;;;;;;5078961;28;20220;-82
2023/11/10 10:16:57;;;;;;;3.27;1.87;;;10.40;99.90;;;;;;5079230;28;20235;-82
2023/11/10 10:19:23;;;;;;;3.17;1.73;;;10.60;99.90;;;;;;5078391;28;20431;-81
2023/11/10 10:21:49;;;;;;;6.60;1.30;;;10.60;99.90;;;;;;5077955;28;20430;-81
2023/11/10 10:24:15;;;;;;;2.23;1.30;;;10.60;99.90;;;;;;5077840;28;20600;-81
2023/11/10 10:26:40;;;;;;;5.10;1.27;;;10.80;99.90;;;;;;5079014;28;20199;-82
2023/11/10 10:29:07;;;;;;;3.27;1.23;;;10.80;99.90;;;;;;5061693;28;20188;-83
2023/11/10 10:31:33;;;;;;;3.33;1.13;;;10.90;99.90;;;;;;5077977;28;20706;-82
2023/11/10 10:34:04;;;;;;;3.33;1.10;;;10.90;99.90;;;;;;5061841;28;20231;-82
2023/11/10 10:36:33;;;;;;;3.55;1.10;;;10.70;99.90;;;;;;5062611;28;20257;-82
2023/11/10 10:39:01;;;;;;;3.38;1.00;;;10.70;99.90;;;;;;5077130;28;20181;-83
2023/11/10 10:41:28;;;;;;;3.08;1.23;;;10.60;99.90;;;;;;5077104;28;20641;-82
2023/11/10 10:43:53;;;;;;;2.75;1.20;;;10.50;99.90;;;;;;5078385;28;20185;-81
2023/11/10 10:46:19;;;;;;;3.90;1.10;;;10.40;99.90;;;;;;5074897;28;20672;-81
2023/11/10 10:48:56;;;;;;;5.63;1.75;;;10.40;99.90;;;;;;5058262;28;20190;-82
2023/11/10 10:51:23;;;;;;;2.63;0.98;;;10.30;99.90;;;;;;5057994;28;20181;-82
2023/11/10 10:53:49;;;;;;;8.00;1.17;;;10.20;99.90;;;;;;5057909;28;20196;-83
2023/11/10 10:56:18;;;;;;;3.08;1.15;;;10.20;99.90;;;;;;5041315;28;20189;-83
2023/11/10 10:58:43;;;;;;;2.80;1.50;;;10.20;99.90;;;;;;5069492;28;20592;-81
2023/11/10 11:01:11;;;;;;;4.77;1.33;;;10.10;99.90;;;;;;5076060;28;20232;-83
2023/11/10 11:03:47;;;;;;;2.35;1.30;;;10.10;99.90;;;;;;5078464;28;20234;-82
2023/11/10 11:06:31;;;;;;;6.15;1.25;;;10.10;99.90;;;;;;5079427;28;20702;-82
2023/11/10 11:09:25;;;;;;;5.25;1.40;;;10.10;99.90;;;;;;5066317;28;20236;-82
2023/11/10 11:12:28;;;;;;;4.38;1.20;;;10.10;99.90;;;;;;5059641;28;20188;-82
2023/11/10 11:15:28;;;;;;;3.05;1.08;;;10.10;99.90;;;;;;5059403;28;20181;-83
2023/11/10 11:18:15;;;;;;;3.45;1.75;;;10.10;99.90;;;;;;5057807;28;20197;-82
2023/11/10 11:20:42;;;;;;;3.70;1.23;;;10.20;99.90;;;;;;5058704;28;20287;-82
2023/11/10 11:23:08;;;;;;;4.68;1.70;;;10.30;99.90;;;;;;5040472;28;20186;-82
2023/11/10 11:25:36;;;;;;;4.45;1.13;;;10.30;99.90;;;;;;5057567;28;20296;-82
2023/11/10 11:28:02;;;;;;;7.05;1.35;;;10.30;99.90;;;;;;5057478;28;20189;-82
2023/11/10 11:30:40;;;;;;;4.43;1.10;;;10.40;99.90;;;;;;5057449;28;20181;-82
2023/11/10 11:33:09;;;;;;;5.00;1.40;;;10.30;99.90;;;;;;5056783;28;20638;-82
2023/11/10 11:35:48;;;;;;;3.83;1.10;;;10.20;99.90;;;;;;5057719;28;20185;-82
2023/11/10 11:38:27;;;;;;;3.05;0.88;;;10.20;99.90;;;;;;5063328;28;20186;-81
2023/11/10 11:40:57;;;;;;;4.82;1.27;;;10.00;99.90;;;;;;5082153;28;20180;-82
2023/11/10 11:43:27;;;;;;;6.72;1.17;;;10.00;99.90;;;;;;5097219;28;20639;-82
2023/11/10 11:45:57;;;;;;;4.38;0.90;;;9.90;99.90;;;;;;5077131;28;20279;-81
2023/11/10 11:48:23;;;;;;;2.20;0.90;;;9.90;99.90;;;;;;5078194;28;20181;-81
2023/11/10 11:50:52;;;;;;;1.05;0.70;;;9.80;99.90;;;;;;5078573;28;20271;-80
2023/11/10 11:53:24;;;;;;;1.83;0.93;;;9.80;99.90;;;;;;5079048;28;20259;-80
2023/11/10 11:55:57;;;;;;;1.48;0.80;;;9.80;99.90;;;;;;5077969;28;20610;-80
2023/11/10 11:58:25;;;;;;;1.85;0.90;;;9.80;99.90;;;;;;5078127;28;20561;-81
2023/11/10 12:00:52;;;;;;;2.83;0.70;;;9.80;99.90;;;;;;5078423;28;20278;-80
2023/11/10 12:03:18;;;;;;;4.40;1.10;;;9.80;99.90;;;;;;5076952;28;20185;-80
2023/11/10 12:05:44;;;;;;;1.93;1.10;;;9.80;99.90;;;;;;5078260;28;20208;-80
2023/11/10 12:08:10;;;;;;;5.20;1.23;;;9.80;99.90;;;;;;5073432;28;20213;-80
2023/11/10 12:10:36;;;;;;;1.98;0.90;;;9.80;99.90;;;;;;5057334;28;20827;-80
2023/11/10 12:13:02;;;;;;;2.40;1.10;;;9.80;99.90;;;;;;5058290;28;20174;-80
2023/11/10 12:15:29;;;;;;;4.47;1.20;;;9.80;99.90;;;;;;5073353;28;20741;-81
2023/11/10 12:17:55;;;;;;;2.88;1.13;;;9.90;99.90;;;;;;5078026;28;20541;-80
2023/11/10 12:20:23;;;;;;;3.47;0.90;;;10.10;99.90;;;;;;5077129;28;20275;-80
2023/11/10 12:22:53;;;;;;;3.72;1.10;;;10.30;99.90;;;;;;5060891;28;20247;-80
2023/11/10 12:25:19;;;;;;;1.10;0.90;;;10.50;99.90;;;;;;5077867;28;20278;-81
2023/11/10 12:27:46;;;;;;;2.58;0.80;;;10.50;99.90;;;;;;5076985;28;20230;-80
2023/11/10 12:30:11;;;;;;;1.50;0.60;;;10.50;99.90;;;;;;5062825;28;20193;-80
2023/11/10 12:32:43;;;;;;;1.90;0.80;;;10.30;99.90;;;;;;5056157;28;20212;-80
2023/11/10 12:35:10;;;;;;;1.83;0.80;;;10.30;99.90;;;;;;5055847;28;20174;-80
2023/11/10 12:37:37;;;;;;;1.75;0.70;;;10.30;99.90;;;;;;5057724;28;20189;-81
2023/11/10 12:40:16;;;;;;;1.42;0.80;;;10.30;99.90;;;;;;5055456;28;20185;-81
2023/11/10 12:42:42;;;;;;;1.80;1.00;;;10.30;99.90;;;;;;5057010;28;20613;-81
2023/11/10 12:45:12;;;;;;;1.77;0.70;;;10.30;99.90;;;;;;5056957;28;20330;-81
2023/11/10 12:47:42;;;;;;;1.10;0.70;;;10.30;99.90;;;;;;5058363;28;20556;-80
2023/11/10 12:50:16;;;;;;;1.55;0.75;;;10.30;99.90;;;;;;5057710;28;20161;-81
2023/11/10 12:53:00;;;;;;;0.90;0.70;;;10.20;99.90;;;;;;5040353;28;20243;-80
2023/11/10 12:55:27;;;;;;;1.27;0.80;;;10.10;99.90;;;;;;5056618;28;20173;-82